Swastika, Canada
Current Conditions -  °F | °C
As of 3:00 AM on Monday 24 Nov 2014 (Local Time) from CYXR Reporting Station
Light Rain Light Rain  
Wind Chill: 32°   Ceiling: 300
Heat Index: 39°   Visibility: 1.2mi
Dew Point: 39°   Wind: 10mph
Humidity: 100%   Direction: 100°E
Pressure: 29.38"   Gusts: NA
Location:  48.1°N, 80.1°W
Report Text: CYXR 240800Z AUTO 10009KT 1 1/4SM -RA BR OVC003 04/04 A2938 RMK PRESFR SLP960
Loading
Personal Weather Stations






























Interactive Weather Map New forecast layout! Learn more

10-Day Weather Forecast

Advertisements
Track Severe Weather on mobile